sensor_id;sensor_type;location;lat;lon;timestamp;P1;durP1;ratioP1;P2;durP2;ratioP2
10465;SDS011;5280;42.600;23.556;2023-07-31T00:00:40;3.83;;;3.43;;
10465;SDS011;5280;42.600;23.556;2023-07-31T00:03:07;5.47;;;3.90;;
10465;SDS011;5280;42.600;23.556;2023-07-31T00:05:35;3.87;;;3.40;;
10465;SDS011;5280;42.600;23.556;2023-07-31T00:08:02;4.23;;;3.93;;
10465;SDS011;5280;42.600;23.556;2023-07-31T00:10:30;4.30;;;3.90;;
10465;SDS011;5280;42.600;23.556;2023-07-31T00:12:58;3.73;;;3.43;;
10465;SDS011;5280;42.600;23.556;2023-07-31T00:15:25;5.57;;;3.60;;
10465;SDS011;5280;42.600;23.556;2023-07-31T00:17:52;3.60;;;3.30;;
10465;SDS011;5280;42.600;23.556;2023-07-31T00:20:19;4.57;;;3.70;;
10465;SDS011;5280;42.600;23.556;2023-07-31T00:22:48;3.90;;;3.60;;
10465;SDS011;5280;42.600;23.556;2023-07-31T00:25:15;8.60;;;3.80;;
10465;SDS011;5280;42.600;23.556;2023-07-31T00:27:43;6.40;;;3.90;;
10465;SDS011;5280;42.600;23.556;2023-07-31T00:30:11;5.00;;;3.90;;
10465;SDS011;5280;42.600;23.556;2023-07-31T00:32:38;4.57;;;4.00;;
10465;SDS011;5280;42.600;23.556;2023-07-31T00:35:05;8.07;;;3.70;;
10465;SDS011;5280;42.600;23.556;2023-07-31T00:37:32;4.20;;;3.90;;
10465;SDS011;5280;42.600;23.556;2023-07-31T00:39:59;4.10;;;3.80;;
10465;SDS011;5280;42.600;23.556;2023-07-31T00:42:26;4.10;;;3.70;;
10465;SDS011;5280;42.600;23.556;2023-07-31T00:44:54;6.60;;;3.73;;
10465;SDS011;5280;42.600;23.556;2023-07-31T00:47:21;4.20;;;3.80;;
10465;SDS011;5280;42.600;23.556;2023-07-31T00:49:47;4.23;;;3.67;;
10465;SDS011;5280;42.600;23.556;2023-07-31T00:52:14;3.90;;;3.57;;
10465;SDS011;5280;42.600;23.556;2023-07-31T00:54:41;3.90;;;3.50;;
10465;SDS011;5280;42.600;23.556;2023-07-31T00:57:08;4.17;;;3.77;;
10465;SDS011;5280;42.600;23.556;2023-07-31T00:59:35;3.73;;;3.43;;
10465;SDS011;5280;42.600;23.556;2023-07-31T01:02:04;3.70;;;3.40;;
10465;SDS011;5280;42.600;23.556;2023-07-31T01:04:32;3.70;;;3.40;;
10465;SDS011;5280;42.600;23.556;2023-07-31T01:07:00;3.40;;;3.20;;
10465;SDS011;5280;42.600;23.556;2023-07-31T01:09:36;3.40;;;3.20;;
10465;SDS011;5280;42.600;23.556;2023-07-31T01:12:15;4.07;;;3.50;;
10465;SDS011;5280;42.600;23.556;2023-07-31T01:14:50;3.93;;;3.63;;
10465;SDS011;5280;42.600;23.556;2023-07-31T01:17:19;3.77;;;3.40;;
10465;SDS011;5280;42.600;23.556;2023-07-31T01:19:46;4.00;;;3.70;;
10465;SDS011;5280;42.600;23.556;2023-07-31T01:22:23;3.63;;;3.43;;
10465;SDS011;5280;42.600;23.556;2023-07-31T01:25:05;3.57;;;3.37;;
10465;SDS011;5280;42.600;23.556;2023-07-31T01:27:44;3.97;;;3.60;;
10465;SDS011;5280;42.600;23.556;2023-07-31T01:30:15;3.80;;;3.50;;
10465;SDS011;5280;42.600;23.556;2023-07-31T01:32:48;3.73;;;3.53;;
10465;SDS011;5280;42.600;23.556;2023-07-31T01:35:16;3.63;;;3.13;;
10465;SDS011;5280;42.600;23.556;2023-07-31T01:37:43;3.50;;;3.30;;
10465;SDS011;5280;42.600;23.556;2023-07-31T01:40:13;3.87;;;3.67;;
10465;SDS011;5280;42.600;23.556;2023-07-31T01:42:39;5.63;;;4.20;;
10465;SDS011;5280;42.600;23.556;2023-07-31T01:45:08;3.57;;;3.37;;
10465;SDS011;5280;42.600;23.556;2023-07-31T01:47:35;4.67;;;4.27;;
10465;SDS011;5280;42.600;23.556;2023-07-31T01:50:02;4.43;;;4.17;;
10465;SDS011;5280;42.600;23.556;2023-07-31T01:52:30;4.70;;;4.40;;
10465;SDS011;5280;42.600;23.556;2023-07-31T01:54:57;6.13;;;4.70;;
10465;SDS011;5280;42.600;23.556;2023-07-31T01:57:23;4.70;;;4.40;;
10465;SDS011;5280;42.600;23.556;2023-07-31T01:59:50;5.20;;;4.90;;
10465;SDS011;5280;42.600;23.556;2023-07-31T02:02:19;5.53;;;5.03;;
10465;SDS011;5280;42.600;23.556;2023-07-31T02:04:48;6.00;;;5.40;;
10465;SDS011;5280;42.600;23.556;2023-07-31T02:07:15;6.10;;;5.60;;
10465;SDS011;5280;42.600;23.556;2023-07-31T02:09:42;7.90;;;7.10;;
10465;SDS011;5280;42.600;23.556;2023-07-31T02:12:08;8.53;;;7.93;;
10465;SDS011;5280;42.600;23.556;2023-07-31T02:14:35;10.47;;;9.67;;
10465;SDS011;5280;42.600;23.556;2023-07-31T02:17:02;10.23;;;9.43;;
10465;SDS011;5280;42.600;23.556;2023-07-31T02:19:30;13.50;;;12.50;;
10465;SDS011;5280;42.600;23.556;2023-07-31T02:21:57;14.03;;;12.83;;
10465;SDS011;5280;42.600;23.556;2023-07-31T02:24:24;14.63;;;13.33;;
10465;SDS011;5280;42.600;23.556;2023-07-31T02:26:50;15.00;;;13.80;;
10465;SDS011;5280;42.600;23.556;2023-07-31T02:29:17;15.97;;;14.57;;
10465;SDS011;5280;42.600;23.556;2023-07-31T02:31:44;17.30;;;15.80;;
10465;SDS011;5280;42.600;23.556;2023-07-31T02:34:11;19.70;;;18.00;;
10465;SDS011;5280;42.600;23.556;2023-07-31T02:36:39;18.47;;;16.87;;
10465;SDS011;5280;42.600;23.556;2023-07-31T02:39:06;20.87;;;19.07;;
10465;SDS011;5280;42.600;23.556;2023-07-31T02:41:32;19.90;;;18.23;;
10465;SDS011;5280;42.600;23.556;2023-07-31T02:43:59;21.23;;;19.37;;
10465;SDS011;5280;42.600;23.556;2023-07-31T02:46:26;19.87;;;18.13;;
10465;SDS011;5280;42.600;23.556;2023-07-31T02:48:52;21.53;;;19.73;;
10465;SDS011;5280;42.600;23.556;2023-07-31T02:51:19;22.07;;;20.07;;
10465;SDS011;5280;42.600;23.556;2023-07-31T02:53:48;20.73;;;18.93;;
10465;SDS011;5280;42.600;23.556;2023-07-31T02:56:14;21.73;;;19.90;;
10465;SDS011;5280;42.600;23.556;2023-07-31T02:58:41;21.00;;;19.20;;
10465;SDS011;5280;42.600;23.556;2023-07-31T03:01:08;21.67;;;19.90;;
10465;SDS011;5280;42.600;23.556;2023-07-31T03:03:35;22.20;;;20.23;;
10465;SDS011;5280;42.600;23.556;2023-07-31T03:06:02;22.13;;;20.23;;
10465;SDS011;5280;42.600;23.556;2023-07-31T03:08:28;22.23;;;20.33;;
10465;SDS011;5280;42.600;23.556;2023-07-31T03:10:57;22.90;;;20.90;;
10465;SDS011;5280;42.600;23.556;2023-07-31T03:13:24;23.47;;;21.47;;
10465;SDS011;5280;42.600;23.556;2023-07-31T03:15:51;23.00;;;20.77;;
10465;SDS011;5280;42.600;23.556;2023-07-31T03:18:20;23.07;;;21.03;;
10465;SDS011;5280;42.600;23.556;2023-07-31T03:20:47;24.80;;;22.60;;
10465;SDS011;5280;42.600;23.556;2023-07-31T03:23:14;23.30;;;21.30;;
10465;SDS011;5280;42.600;23.556;2023-07-31T03:25:41;25.50;;;23.20;;
10465;SDS011;5280;42.600;23.556;2023-07-31T03:28:23;24.70;;;22.60;;
10465;SDS011;5280;42.600;23.556;2023-07-31T03:30:50;24.43;;;22.33;;
10465;SDS011;5280;42.600;23.556;2023-07-31T03:33:18;25.67;;;23.27;;
10465;SDS011;5280;42.600;23.556;2023-07-31T03:35:45;25.13;;;23.03;;
10465;SDS011;5280;42.600;23.556;2023-07-31T03:38:11;25.13;;;23.03;;
10465;SDS011;5280;42.600;23.556;2023-07-31T03:40:38;24.20;;;22.20;;
10465;SDS011;5280;42.600;23.556;2023-07-31T03:43:05;26.10;;;23.70;;
10465;SDS011;5280;42.600;23.556;2023-07-31T03:45:34;24.23;;;22.17;;
10465;SDS011;5280;42.600;23.556;2023-07-31T03:48:00;25.57;;;23.20;;
10465;SDS011;5280;42.600;23.556;2023-07-31T03:50:27;24.23;;;22.13;;
10465;SDS011;5280;42.600;23.556;2023-07-31T03:52:54;25.50;;;23.30;;
10465;SDS011;5280;42.600;23.556;2023-07-31T03:55:21;25.93;;;23.63;;
10465;SDS011;5280;42.600;23.556;2023-07-31T03:57:48;25.53;;;23.23;;
10465;SDS011;5280;42.600;23.556;2023-07-31T04:00:15;25.67;;;23.27;;
10465;SDS011;5280;42.600;23.556;2023-07-31T04:02:43;23.90;;;21.70;;
10465;SDS011;5280;42.600;23.556;2023-07-31T04:05:10;24.60;;;22.40;;
10465;SDS011;5280;42.600;23.556;2023-07-31T04:07:37;25.50;;;23.03;;
10465;SDS011;5280;42.600;23.556;2023-07-31T04:10:04;26.20;;;23.90;;
10465;SDS011;5280;42.600;23.556;2023-07-31T04:12:31;25.37;;;23.17;;
10465;SDS011;5280;42.600;23.556;2023-07-31T04:14:58;24.07;;;21.93;;
10465;SDS011;5280;42.600;23.556;2023-07-31T04:17:24;26.33;;;23.90;;
10465;SDS011;5280;42.600;23.556;2023-07-31T04:19:53;24.20;;;22.13;;
10465;SDS011;5280;42.600;23.556;2023-07-31T04:22:20;25.07;;;22.87;;
10465;SDS011;5280;42.600;23.556;2023-07-31T04:24:47;25.90;;;23.40;;
10465;SDS011;5280;42.600;23.556;2023-07-31T04:27:13;27.93;;;25.43;;
10465;SDS011;5280;42.600;23.556;2023-07-31T04:29:40;25.73;;;23.30;;
10465;SDS011;5280;42.600;23.556;2023-07-31T04:32:09;26.97;;;24.57;;
10465;SDS011;5280;42.600;23.556;2023-07-31T04:34:36;25.57;;;23.20;;
10465;SDS011;5280;42.600;23.556;2023-07-31T04:37:04;26.10;;;23.70;;
10465;SDS011;5280;42.600;23.556;2023-07-31T04:39:35;27.30;;;24.80;;
10465;SDS011;5280;42.600;23.556;2023-07-31T04:42:02;28.00;;;25.30;;
10465;SDS011;5280;42.600;23.556;2023-07-31T04:44:30;27.53;;;24.73;;
10465;SDS011;5280;42.600;23.556;2023-07-31T04:46:56;27.27;;;24.67;;
10465;SDS011;5280;42.600;23.556;2023-07-31T04:49:23;27.80;;;25.00;;
10465;SDS011;5280;42.600;23.556;2023-07-31T04:51:53;26.73;;;24.07;;
10465;SDS011;5280;42.600;23.556;2023-07-31T04:54:21;27.13;;;24.43;;
10465;SDS011;5280;42.600;23.556;2023-07-31T04:56:48;26.97;;;24.47;;
10465;SDS011;5280;42.600;23.556;2023-07-31T04:59:15;26.77;;;24.27;;
10465;SDS011;5280;42.600;23.556;2023-07-31T05:01:42;27.43;;;24.87;;
10465;SDS011;5280;42.600;23.556;2023-07-31T05:04:11;27.10;;;24.30;;
10465;SDS011;5280;42.600;23.556;2023-07-31T05:06:39;26.70;;;24.20;;
10465;SDS011;5280;42.600;23.556;2023-07-31T05:09:06;26.70;;;24.13;;
10465;SDS011;5280;42.600;23.556;2023-07-31T05:11:35;26.67;;;24.17;;
10465;SDS011;5280;42.600;23.556;2023-07-31T05:14:02;25.60;;;23.10;;
10465;SDS011;5280;42.600;23.556;2023-07-31T05:16:29;25.47;;;23.07;;
10465;SDS011;5280;42.600;23.556;2023-07-31T05:18:56;25.73;;;23.27;;
10465;SDS011;5280;42.600;23.556;2023-07-31T05:21:23;24.00;;;21.80;;
10465;SDS011;5280;42.600;23.556;2023-07-31T05:23:49;24.60;;;22.20;;
10465;SDS011;5280;42.600;23.556;2023-07-31T05:26:16;25.13;;;22.70;;
10465;SDS011;5280;42.600;23.556;2023-07-31T05:28:44;23.90;;;21.80;;
10465;SDS011;5280;42.600;23.556;2023-07-31T05:31:11;24.53;;;22.03;;
10465;SDS011;5280;42.600;23.556;2023-07-31T05:33:38;24.23;;;21.93;;
10465;SDS011;5280;42.600;23.556;2023-07-31T05:36:07;23.23;;;21.03;;
10465;SDS011;5280;42.600;23.556;2023-07-31T05:38:34;23.83;;;21.53;;
10465;SDS011;5280;42.600;23.556;2023-07-31T05:41:01;22.10;;;20.07;;
10465;SDS011;5280;42.600;23.556;2023-07-31T05:43:28;22.23;;;20.23;;
10465;SDS011;5280;42.600;23.556;2023-07-31T05:45:56;23.23;;;21.13;;
10465;SDS011;5280;42.600;23.556;2023-07-31T05:48:22;22.40;;;20.30;;
10465;SDS011;5280;42.600;23.556;2023-07-31T05:50:49;22.30;;;20.30;;
10465;SDS011;5280;42.600;23.556;2023-07-31T05:53:16;19.80;;;18.10;;
10465;SDS011;5280;42.600;23.556;2023-07-31T05:55:43;19.97;;;18.17;;
10465;SDS011;5280;42.600;23.556;2023-07-31T05:58:10;18.40;;;16.90;;
10465;SDS011;5280;42.600;23.556;2023-07-31T06:00:36;18.40;;;16.83;;
10465;SDS011;5280;42.600;23.556;2023-07-31T06:03:05;17.10;;;15.70;;
10465;SDS011;5280;42.600;23.556;2023-07-31T06:05:31;18.67;;;17.07;;
10465;SDS011;5280;42.600;23.556;2023-07-31T06:07:58;16.80;;;15.40;;
10465;SDS011;5280;42.600;23.556;2023-07-31T06:10:25;16.17;;;14.87;;
10465;SDS011;5280;42.600;23.556;2023-07-31T06:12:53;15.13;;;13.83;;
10465;SDS011;5280;42.600;23.556;2023-07-31T06:15:20;15.20;;;13.90;;
10465;SDS011;5280;42.600;23.556;2023-07-31T06:17:47;13.40;;;12.30;;
10465;SDS011;5280;42.600;23.556;2023-07-31T06:20:15;12.90;;;11.90;;
10465;SDS011;5280;42.600;23.556;2023-07-31T06:22:42;12.57;;;11.57;;
10465;SDS011;5280;42.600;23.556;2023-07-31T06:25:08;12.83;;;11.73;;
10465;SDS011;5280;42.600;23.556;2023-07-31T06:27:35;11.47;;;10.57;;
10465;SDS011;5280;42.600;23.556;2023-07-31T06:30:02;11.20;;;10.33;;
10465;SDS011;5280;42.600;23.556;2023-07-31T06:32:30;10.73;;;9.93;;
10465;SDS011;5280;42.600;23.556;2023-07-31T06:34:57;9.40;;;8.67;;
10465;SDS011;5280;42.600;23.556;2023-07-31T06:37:25;9.20;;;8.50;;
10465;SDS011;5280;42.600;23.556;2023-07-31T06:39:51;10.10;;;9.30;;
10465;SDS011;5280;42.600;23.556;2023-07-31T06:42:18;8.97;;;8.37;;
10465;SDS011;5280;42.600;23.556;2023-07-31T06:44:45;8.87;;;8.10;;
10465;SDS011;5280;42.600;23.556;2023-07-31T06:47:12;8.60;;;7.73;;
10465;SDS011;5280;42.600;23.556;2023-07-31T06:49:38;7.47;;;6.87;;
10465;SDS011;5280;42.600;23.556;2023-07-31T06:52:05;8.10;;;7.30;;
10465;SDS011;5280;42.600;23.556;2023-07-31T06:54:34;6.60;;;6.10;;
10465;SDS011;5280;42.600;23.556;2023-07-31T06:57:01;6.87;;;6.30;;
10465;SDS011;5280;42.600;23.556;2023-07-31T06:59:28;6.10;;;5.60;;
10465;SDS011;5280;42.600;23.556;2023-07-31T07:01:55;5.88;;;5.38;;
10465;SDS011;5280;42.600;23.556;2023-07-31T07:04:22;5.70;;;5.30;;
10465;SDS011;5280;42.600;23.556;2023-07-31T07:06:49;5.53;;;5.13;;
10465;SDS011;5280;42.600;23.556;2023-07-31T07:09:15;5.73;;;5.23;;
10465;SDS011;5280;42.600;23.556;2023-07-31T07:11:44;6.03;;;5.47;;
10465;SDS011;5280;42.600;23.556;2023-07-31T07:14:10;6.03;;;5.43;;
10465;SDS011;5280;42.600;23.556;2023-07-31T07:16:37;4.90;;;4.60;;
10465;SDS011;5280;42.600;23.556;2023-07-31T07:19:06;5.60;;;5.10;;
10465;SDS011;5280;42.600;23.556;2023-07-31T07:21:32;5.43;;;4.93;;
10465;SDS011;5280;42.600;23.556;2023-07-31T07:23:59;4.90;;;4.43;;
10465;SDS011;5280;42.600;23.556;2023-07-31T07:26:26;4.63;;;4.23;;
10465;SDS011;5280;42.600;23.556;2023-07-31T07:28:54;5.33;;;4.83;;
10465;SDS011;5280;42.600;23.556;2023-07-31T07:31:20;4.60;;;4.30;;
10465;SDS011;5280;42.600;23.556;2023-07-31T07:33:47;4.77;;;4.47;;
10465;SDS011;5280;42.600;23.556;2023-07-31T07:36:14;4.80;;;4.40;;
10465;SDS011;5280;42.600;23.556;2023-07-31T07:38:41;4.40;;;4.10;;
10465;SDS011;5280;42.600;23.556;2023-07-31T07:41:08;3.80;;;3.50;;
10465;SDS011;5280;42.600;23.556;2023-07-31T07:43:35;3.40;;;3.20;;
10465;SDS011;5280;42.600;23.556;2023-07-31T07:46:03;3.83;;;3.43;;
10465;SDS011;5280;42.600;23.556;2023-07-31T07:48:30;3.85;;;3.55;;
10465;SDS011;5280;42.600;23.556;2023-07-31T07:50:56;3.70;;;3.40;;
10465;SDS011;5280;42.600;23.556;2023-07-31T07:53:23;4.00;;;3.70;;
10465;SDS011;5280;42.600;23.556;2023-07-31T07:55:50;4.40;;;3.90;;
10465;SDS011;5280;42.600;23.556;2023-07-31T07:58:17;4.00;;;3.70;;
10465;SDS011;5280;42.600;23.556;2023-07-31T08:00:48;3.93;;;3.63;;
10465;SDS011;5280;42.600;23.556;2023-07-31T08:03:16;3.58;;;3.33;;
10465;SDS011;5280;42.600;23.556;2023-07-31T08:05:52;3.78;;;3.50;;
10465;SDS011;5280;42.600;23.556;2023-07-31T08:08:24;3.58;;;3.38;;
10465;SDS011;5280;42.600;23.556;2023-07-31T08:10:51;3.40;;;3.20;;
10465;SDS011;5280;42.600;23.556;2023-07-31T08:13:18;3.25;;;3.05;;
10465;SDS011;5280;42.600;23.556;2023-07-31T08:15:45;4.10;;;3.70;;
10465;SDS011;5280;42.600;23.556;2023-07-31T08:18:11;3.58;;;3.28;;
10465;SDS011;5280;42.600;23.556;2023-07-31T08:20:39;3.20;;;3.00;;
10465;SDS011;5280;42.600;23.556;2023-07-31T08:23:06;3.40;;;3.10;;
10465;SDS011;5280;42.600;23.556;2023-07-31T08:25:34;3.63;;;3.28;;
10465;SDS011;5280;42.600;23.556;2023-07-31T08:28:01;4.25;;;3.40;;
10465;SDS011;5280;42.600;23.556;2023-07-31T08:30:28;4.13;;;3.63;;
10465;SDS011;5280;42.600;23.556;2023-07-31T08:32:55;3.63;;;3.33;;
10465;SDS011;5280;42.600;23.556;2023-07-31T08:35:21;3.70;;;3.40;;
10465;SDS011;5280;42.600;23.556;2023-07-31T08:37:50;3.60;;;3.40;;
10465;SDS011;5280;42.600;23.556;2023-07-31T08:40:17;3.75;;;3.30;;
10465;SDS011;5280;42.600;23.556;2023-07-31T08:42:44;3.60;;;3.28;;
10465;SDS011;5280;42.600;23.556;2023-07-31T08:45:13;5.45;;;3.38;;
10465;SDS011;5280;42.600;23.556;2023-07-31T08:47:41;3.10;;;2.90;;
10465;SDS011;5280;42.600;23.556;2023-07-31T08:50:10;2.95;;;2.75;;
10465;SDS011;5280;42.600;23.556;2023-07-31T08:52:38;3.28;;;2.90;;
10465;SDS011;5280;42.600;23.556;2023-07-31T08:55:07;2.85;;;2.65;;
10465;SDS011;5280;42.600;23.556;2023-07-31T08:57:35;3.03;;;2.83;;
10465;SDS011;5280;42.600;23.556;2023-07-31T09:00:05;3.00;;;2.80;;
10465;SDS011;5280;42.600;23.556;2023-07-31T09:02:34;3.50;;;3.30;;
10465;SDS011;5280;42.600;23.556;2023-07-31T09:05:06;3.00;;;2.83;;
10465;SDS011;5280;42.600;23.556;2023-07-31T09:07:33;3.45;;;3.15;;
10465;SDS011;5280;42.600;23.556;2023-07-31T09:10:01;3.22;;;2.92;;
10465;SDS011;5280;42.600;23.556;2023-07-31T09:12:29;3.28;;;3.08;;
10465;SDS011;5280;42.600;23.556;2023-07-31T09:14:56;3.90;;;3.40;;
10465;SDS011;5280;42.600;23.556;2023-07-31T09:17:29;2.72;;;2.63;;
10465;SDS011;5280;42.600;23.556;2023-07-31T09:19:57;3.15;;;2.95;;
10465;SDS011;5280;42.600;23.556;2023-07-31T09:25:15;3.25;;;3.03;;
10465;SDS011;5280;42.600;23.556;2023-07-31T09:27:48;3.28;;;2.85;;
10465;SDS011;5280;42.600;23.556;2023-07-31T09:30:16;3.53;;;3.25;;
10465;SDS011;5280;42.600;23.556;2023-07-31T09:32:43;3.17;;;2.85;;
10465;SDS011;5280;42.600;23.556;2023-07-31T09:35:13;3.10;;;2.90;;
10465;SDS011;5280;42.600;23.556;2023-07-31T09:37:47;3.42;;;3.15;;
10465;SDS011;5280;42.600;23.556;2023-07-31T09:40:24;3.10;;;2.90;;
10465;SDS011;5280;42.600;23.556;2023-07-31T09:42:53;3.25;;;2.95;;
10465;SDS011;5280;42.600;23.556;2023-07-31T09:45:20;3.28;;;2.97;;
10465;SDS011;5280;42.600;23.556;2023-07-31T09:47:46;3.38;;;3.17;;
10465;SDS011;5280;42.600;23.556;2023-07-31T09:50:14;2.92;;;2.78;;
10465;SDS011;5280;42.600;23.556;2023-07-31T09:52:41;3.30;;;3.10;;
10465;SDS011;5280;42.600;23.556;2023-07-31T09:55:08;3.30;;;2.90;;
10465;SDS011;5280;42.600;23.556;2023-07-31T09:57:35;2.90;;;2.67;;
10465;SDS011;5280;42.600;23.556;2023-07-31T10:00:07;3.35;;;3.05;;
10465;SDS011;5280;42.600;23.556;2023-07-31T10:02:36;3.10;;;2.90;;
10465;SDS011;5280;42.600;23.556;2023-07-31T10:05:04;3.25;;;2.95;;
10465;SDS011;5280;42.600;23.556;2023-07-31T10:07:33;3.45;;;2.80;;
10465;SDS011;5280;42.600;23.556;2023-07-31T10:10:03;3.30;;;3.00;;
10465;SDS011;5280;42.600;23.556;2023-07-31T10:12:31;3.17;;;2.97;;
10465;SDS011;5280;42.600;23.556;2023-07-31T10:14:59;4.13;;;2.85;;
10465;SDS011;5280;42.600;23.556;2023-07-31T10:17:28;2.90;;;2.70;;
10465;SDS011;5280;42.600;23.556;2023-07-31T10:19:56;3.10;;;2.80;;
10465;SDS011;5280;42.600;23.556;2023-07-31T10:22:24;3.03;;;2.83;;
10465;SDS011;5280;42.600;23.556;2023-07-31T10:24:52;3.22;;;3.03;;
10465;SDS011;5280;42.600;23.556;2023-07-31T10:27:20;3.03;;;2.83;;
10465;SDS011;5280;42.600;23.556;2023-07-31T10:29:47;2.80;;;2.70;;
10465;SDS011;5280;42.600;23.556;2023-07-31T10:32:14;2.92;;;2.80;;
10465;SDS011;5280;42.600;23.556;2023-07-31T10:34:44;3.20;;;3.00;;
10465;SDS011;5280;42.600;23.556;2023-07-31T10:37:22;4.05;;;3.00;;
10465;SDS011;5280;42.600;23.556;2023-07-31T10:39:57;3.97;;;2.70;;
10465;SDS011;5280;42.600;23.556;2023-07-31T10:42:30;4.07;;;3.42;;
10465;SDS011;5280;42.600;23.556;2023-07-31T10:44:59;3.28;;;2.97;;
10465;SDS011;5280;42.600;23.556;2023-07-31T10:47:26;3.00;;;2.72;;
10465;SDS011;5280;42.600;23.556;2023-07-31T10:50:07;5.30;;;2.80;;
10465;SDS011;5280;42.600;23.556;2023-07-31T10:52:37;2.85;;;2.65;;
10465;SDS011;5280;42.600;23.556;2023-07-31T10:55:13;2.70;;;2.50;;
10465;SDS011;5280;42.600;23.556;2023-07-31T10:57:44;2.78;;;2.55;;
10465;SDS011;5280;42.600;23.556;2023-07-31T11:00:21;2.42;;;2.30;;
10465;SDS011;5280;42.600;23.556;2023-07-31T11:02:58;2.53;;;2.40;;
10465;SDS011;5280;42.600;23.556;2023-07-31T11:08:29;2.17;;;1.95;;
10465;SDS011;5280;42.600;23.556;2023-07-31T11:11:06;2.20;;;2.10;;
10465;SDS011;5280;42.600;23.556;2023-07-31T11:13:39;2.20;;;2.00;;
10465;SDS011;5280;42.600;23.556;2023-07-31T11:16:07;2.45;;;2.25;;
10465;SDS011;5280;42.600;23.556;2023-07-31T11:18:38;2.75;;;2.50;;
10465;SDS011;5280;42.600;23.556;2023-07-31T11:21:07;1.90;;;1.63;;
10465;SDS011;5280;42.600;23.556;2023-07-31T11:23:36;5.10;;;2.00;;
10465;SDS011;5280;42.600;23.556;2023-07-31T11:26:05;2.28;;;2.17;;
10465;SDS011;5280;42.600;23.556;2023-07-31T11:28:33;2.13;;;2.03;;
10465;SDS011;5280;42.600;23.556;2023-07-31T11:31:01;2.50;;;2.30;;
10465;SDS011;5280;42.600;23.556;2023-07-31T11:33:28;2.33;;;2.10;;
10465;SDS011;5280;42.600;23.556;2023-07-31T11:35:55;2.85;;;2.35;;
10465;SDS011;5280;42.600;23.556;2023-07-31T11:38:23;1.95;;;1.90;;
10465;SDS011;5280;42.600;23.556;2023-07-31T11:40:51;2.10;;;2.00;;
10465;SDS011;5280;42.600;23.556;2023-07-31T11:43:19;2.13;;;2.03;;
10465;SDS011;5280;42.600;23.556;2023-07-31T11:46:00;2.38;;;2.20;;
10465;SDS011;5280;42.600;23.556;2023-07-31T11:48:28;2.40;;;2.20;;
10465;SDS011;5280;42.600;23.556;2023-07-31T11:50:57;3.70;;;1.80;;
10465;SDS011;5280;42.600;23.556;2023-07-31T11:53:29;2.95;;;1.90;;
10465;SDS011;5280;42.600;23.556;2023-07-31T11:55:59;2.42;;;1.90;;
10465;SDS011;5280;42.600;23.556;2023-07-31T11:58:27;3.78;;;2.00;;
10465;SDS011;5280;42.600;23.556;2023-07-31T12:00:56;2.17;;;2.08;;
10465;SDS011;5280;42.600;23.556;2023-07-31T12:03:26;2.25;;;2.15;;
10465;SDS011;5280;42.600;23.556;2023-07-31T12:05:53;2.00;;;1.88;;
10465;SDS011;5280;42.600;23.556;2023-07-31T12:08:21;2.60;;;2.40;;
10465;SDS011;5280;42.600;23.556;2023-07-31T12:10:51;2.20;;;2.10;;
10465;SDS011;5280;42.600;23.556;2023-07-31T12:13:22;1.77;;;1.75;;
10465;SDS011;5280;42.600;23.556;2023-07-31T12:15:53;2.55;;;1.80;;
10465;SDS011;5280;42.600;23.556;2023-07-31T12:18:22;3.08;;;2.00;;
10465;SDS011;5280;42.600;23.556;2023-07-31T12:20:53;1.98;;;1.80;;
10465;SDS011;5280;42.600;23.556;2023-07-31T12:23:21;2.90;;;2.05;;
10465;SDS011;5280;42.600;23.556;2023-07-31T12:26:01;1.90;;;1.80;;
10465;SDS011;5280;42.600;23.556;2023-07-31T12:28:28;1.98;;;1.88;;
10465;SDS011;5280;42.600;23.556;2023-07-31T12:30:56;2.50;;;2.30;;
10465;SDS011;5280;42.600;23.556;2023-07-31T12:33:29;2.28;;;2.08;;
10465;SDS011;5280;42.600;23.556;2023-07-31T12:35:57;2.00;;;1.90;;
10465;SDS011;5280;42.600;23.556;2023-07-31T12:38:24;2.13;;;2.03;;
10465;SDS011;5280;42.600;23.556;2023-07-31T12:40:51;2.20;;;2.10;;
10465;SDS011;5280;42.600;23.556;2023-07-31T12:43:20;3.53;;;2.47;;
10465;SDS011;5280;42.600;23.556;2023-07-31T12:45:46;2.70;;;2.45;;
10465;SDS011;5280;42.600;23.556;2023-07-31T12:48:13;3.58;;;2.33;;
10465;SDS011;5280;42.600;23.556;2023-07-31T12:50:40;3.22;;;2.55;;
10465;SDS011;5280;42.600;23.556;2023-07-31T12:53:07;3.63;;;2.53;;
10465;SDS011;5280;42.600;23.556;2023-07-31T12:55:34;2.50;;;2.30;;
10465;SDS011;5280;42.600;23.556;2023-07-31T12:58:01;2.88;;;2.60;;
10465;SDS011;5280;42.600;23.556;2023-07-31T13:00:30;2.53;;;2.30;;
10465;SDS011;5280;42.600;23.556;2023-07-31T13:02:57;2.63;;;2.38;;
10465;SDS011;5280;42.600;23.556;2023-07-31T13:05:25;2.55;;;2.45;;
10465;SDS011;5280;42.600;23.556;2023-07-31T13:07:52;2.78;;;2.47;;
10465;SDS011;5280;42.600;23.556;2023-07-31T13:10:19;3.00;;;2.80;;
10465;SDS011;5280;42.600;23.556;2023-07-31T13:12:46;3.92;;;3.60;;
10465;SDS011;5280;42.600;23.556;2023-07-31T13:15:13;4.30;;;4.00;;
10465;SDS011;5280;42.600;23.556;2023-07-31T13:17:41;4.00;;;3.70;;
10465;SDS011;5280;42.600;23.556;2023-07-31T13:20:08;4.13;;;3.83;;
10465;SDS011;5280;42.600;23.556;2023-07-31T13:22:35;6.43;;;4.00;;
10465;SDS011;5280;42.600;23.556;2023-07-31T13:25:02;4.00;;;3.70;;
10465;SDS011;5280;42.600;23.556;2023-07-31T13:27:30;3.63;;;3.33;;
10465;SDS011;5280;42.600;23.556;2023-07-31T13:29:57;4.45;;;4.05;;
10465;SDS011;5280;42.600;23.556;2023-07-31T13:32:24;4.43;;;4.13;;
10465;SDS011;5280;42.600;23.556;2023-07-31T13:34:52;5.13;;;4.72;;
10465;SDS011;5280;42.600;23.556;2023-07-31T13:37:19;5.03;;;4.63;;
10465;SDS011;5280;42.600;23.556;2023-07-31T13:39:46;6.90;;;4.43;;
10465;SDS011;5280;42.600;23.556;2023-07-31T13:42:13;4.30;;;4.00;;
10465;SDS011;5280;42.600;23.556;2023-07-31T13:44:39;4.78;;;4.38;;
10465;SDS011;5280;42.600;23.556;2023-07-31T13:47:07;4.93;;;4.63;;
10465;SDS011;5280;42.600;23.556;2023-07-31T13:49:34;5.20;;;4.82;;
10465;SDS011;5280;42.600;23.556;2023-07-31T13:52:05;5.22;;;4.85;;
10465;SDS011;5280;42.600;23.556;2023-07-31T13:54:34;4.85;;;4.55;;
10465;SDS011;5280;42.600;23.556;2023-07-31T13:57:02;8.02;;;4.57;;
10465;SDS011;5280;42.600;23.556;2023-07-31T13:59:29;4.72;;;4.43;;
10465;SDS011;5280;42.600;23.556;2023-07-31T14:01:56;4.18;;;3.85;;
10465;SDS011;5280;42.600;23.556;2023-07-31T14:04:28;3.80;;;3.60;;
10465;SDS011;5280;42.600;23.556;2023-07-31T14:06:55;5.32;;;3.97;;
10465;SDS011;5280;42.600;23.556;2023-07-31T14:09:26;4.30;;;4.10;;
10465;SDS011;5280;42.600;23.556;2023-07-31T14:11:53;4.20;;;3.95;;
10465;SDS011;5280;42.600;23.556;2023-07-31T14:14:20;4.55;;;4.25;;
10465;SDS011;5280;42.600;23.556;2023-07-31T14:16:47;4.00;;;3.80;;
10465;SDS011;5280;42.600;23.556;2023-07-31T14:19:14;3.90;;;3.70;;
10465;SDS011;5280;42.600;23.556;2023-07-31T14:21:40;4.20;;;3.90;;
10465;SDS011;5280;42.600;23.556;2023-07-31T14:24:07;4.00;;;3.70;;
10465;SDS011;5280;42.600;23.556;2023-07-31T14:26:35;4.30;;;4.05;;
10465;SDS011;5280;42.600;23.556;2023-07-31T14:29:02;4.38;;;4.00;;
10465;SDS011;5280;42.600;23.556;2023-07-31T14:31:30;3.92;;;3.72;;
10465;SDS011;5280;42.600;23.556;2023-07-31T14:34:00;4.25;;;3.95;;
10465;SDS011;5280;42.600;23.556;2023-07-31T14:36:27;4.30;;;3.90;;
10465;SDS011;5280;42.600;23.556;2023-07-31T14:38:53;3.75;;;3.55;;
10465;SDS011;5280;42.600;23.556;2023-07-31T14:41:20;3.60;;;3.33;;
10465;SDS011;5280;42.600;23.556;2023-07-31T14:43:48;4.03;;;3.63;;
10465;SDS011;5280;42.600;23.556;2023-07-31T14:46:15;3.58;;;3.38;;
10465;SDS011;5280;42.600;23.556;2023-07-31T14:48:42;3.85;;;3.65;;
10465;SDS011;5280;42.600;23.556;2023-07-31T14:51:09;3.65;;;3.42;;